createdAt,value
2019-05-19T00:00:08.809Z,11.53
2019-05-19T00:01:09.059Z,11.64
2019-05-19T00:02:08.299Z,11.57
2019-05-19T00:03:08.462Z,11.50
2019-05-19T00:04:08.577Z,11.41
2019-05-19T00:05:08.724Z,11.52
2019-05-19T00:06:08.851Z,11.44
2019-05-19T00:07:08.992Z,11.44
2019-05-19T00:08:09.171Z,11.50
2019-05-19T00:09:09.306Z,11.50
2019-05-19T00:10:09.439Z,11.35
2019-05-19T00:11:09.557Z,11.46
2019-05-19T00:12:09.689Z,11.41
2019-05-19T00:13:10.325Z,11.41
2019-05-19T00:14:10.966Z,11.38
2019-05-19T00:15:10.084Z,11.49
2019-05-19T00:16:10.219Z,11.53
2019-05-19T00:17:11.304Z,11.52
2019-05-19T00:18:11.324Z,11.46
2019-05-19T00:19:24.476Z,11.46
2019-05-19T00:20:44.340Z,11.38
2019-05-19T00:21:11.175Z,11.31
2019-05-19T00:22:12.313Z,11.31
2019-05-19T00:23:11.575Z,11.19
2019-05-19T00:24:11.713Z,11.32
2019-05-19T00:25:11.849Z,11.32
2019-05-19T00:26:12.862Z,11.27
2019-05-19T00:27:12.213Z,11.25
2019-05-19T00:28:12.371Z,11.25
2019-05-19T00:29:12.499Z,11.27
2019-05-19T00:30:12.636Z,11.34
2019-05-19T00:31:12.772Z,11.29
2019-05-19T00:32:12.933Z,11.34
2019-05-19T00:33:13.842Z,11.20
2019-05-19T00:34:13.235Z,11.24
2019-05-19T00:35:13.426Z,11.27
2019-05-19T00:36:14.357Z,11.24
2019-05-19T00:37:13.715Z,11.20
2019-05-19T00:38:13.851Z,11.31
2019-05-19T00:39:13.974Z,11.17
2019-05-19T00:40:14.141Z,11.28
2019-05-19T00:41:14.261Z,11.27
2019-05-19T00:42:14.412Z,11.32
2019-05-19T00:43:14.553Z,11.31
2019-05-19T00:44:14.716Z,11.31
2019-05-19T00:45:15.347Z,11.27
2019-05-19T00:46:14.935Z,11.21
2019-05-19T00:47:15.846Z,11.32
2019-05-19T00:48:15.188Z,11.20
2019-05-19T00:49:15.367Z,11.27
2019-05-19T00:50:15.489Z,11.27
2019-05-19T00:51:48.506Z,11.28
2019-05-19T00:52:15.848Z,11.20
2019-05-19T00:53:16.092Z,11.32
2019-05-19T00:54:16.394Z,11.19
2019-05-19T00:55:16.555Z,11.27
2019-05-19T00:56:17.363Z,11.28
2019-05-19T00:57:17.366Z,11.21
2019-05-19T00:58:16.972Z,11.29
2019-05-19T00:59:17.219Z,11.21
2019-05-19T01:00:17.433Z,11.27
2019-05-19T01:01:17.648Z,11.19
2019-05-19T01:02:17.898Z,11.21
2019-05-19T01:03:18.057Z,11.17
2019-05-19T01:04:18.199Z,11.27
2019-05-19T01:05:20.722Z,11.19
2019-05-19T01:06:20.373Z,11.16
2019-05-19T01:07:18.713Z,11.14
2019-05-19T01:08:18.876Z,11.24
2019-05-19T01:09:19.001Z,11.07
2019-05-19T01:10:19.386Z,11.13
2019-05-19T01:11:19.371Z,11.16
2019-05-19T01:12:19.497Z,11.21
2019-05-19T01:13:20.369Z,11.14
2019-05-19T01:14:20.373Z,11.10
2019-05-19T01:15:19.991Z,11.13
2019-05-19T01:16:20.084Z,11.06
2019-05-19T01:17:20.218Z,11.02
2019-05-19T01:18:20.371Z,11.01
2019-05-19T01:19:21.382Z,11.06
2019-05-19T01:20:20.645Z,11.09
2019-05-19T01:21:54.179Z,11.06
2019-05-19T01:22:54.314Z,11.06
2019-05-19T01:23:21.903Z,11.06
2019-05-19T01:24:21.912Z,10.95
2019-05-19T01:25:21.409Z,11.02
2019-05-19T01:26:21.576Z,10.98
2019-05-19T01:27:21.712Z,10.96
2019-05-19T01:28:22.404Z,11.01
2019-05-19T01:29:22.036Z,10.92
2019-05-19T01:30:22.217Z,10.86
2019-05-19T01:31:22.365Z,10.91
2019-05-19T01:32:22.518Z,10.94
2019-05-19T01:33:22.770Z,10.86
2019-05-19T01:34:22.947Z,10.84
2019-05-19T01:35:23.109Z,10.86
2019-05-19T01:36:23.266Z,10.88
2019-05-19T01:37:23.472Z,10.84
2019-05-19T01:38:23.922Z,10.78
2019-05-19T01:39:23.767Z,10.83
2019-05-19T01:40:23.862Z,10.86
2019-05-19T01:41:24.041Z,10.81
2019-05-19T01:42:24.224Z,11.02
2019-05-19T01:43:24.369Z,10.94
2019-05-19T01:44:24.508Z,10.92
2019-05-19T01:45:24.658Z,10.98
2019-05-19T01:46:24.816Z,11.03
2019-05-19T01:47:25.010Z,10.99
2019-05-19T01:48:27.907Z,10.86
2019-05-19T01:49:25.350Z,10.86
2019-05-19T01:50:25.515Z,10.83
2019-05-19T01:51:25.646Z,10.92
2019-05-19T01:53:00.242Z,10.83
2019-05-19T01:53:25.933Z,10.77
2019-05-19T01:54:26.105Z,10.88
2019-05-19T01:55:26.257Z,10.76
2019-05-19T01:56:26.943Z,10.88
2019-05-19T01:57:26.966Z,10.88
2019-05-19T01:58:26.966Z,10.91
2019-05-19T01:59:27.951Z,10.88
2019-05-19T02:00:27.173Z,10.96
2019-05-19T02:01:27.297Z,10.91
2019-05-19T02:02:27.426Z,10.89
2019-05-19T02:03:27.966Z,10.86
2019-05-19T02:04:27.716Z,10.84
2019-05-19T02:05:27.854Z,10.80
2019-05-19T02:06:27.969Z,10.91
2019-05-19T02:07:28.107Z,10.81
2019-05-19T02:08:28.467Z,10.77
2019-05-19T02:09:28.459Z,10.84
2019-05-19T02:10:28.961Z,10.84
2019-05-19T02:11:28.699Z,10.86
2019-05-19T02:12:29.459Z,10.78
2019-05-19T02:13:29.104Z,10.80
2019-05-19T02:14:29.969Z,10.77
2019-05-19T02:15:29.459Z,10.76
2019-05-19T02:16:29.700Z,10.73
2019-05-19T02:17:30.842Z,10.84
2019-05-19T02:18:29.980Z,10.78
2019-05-19T02:19:30.087Z,10.76
2019-05-19T02:20:33.154Z,10.68
2019-05-19T02:21:31.446Z,10.74
2019-05-19T02:22:31.459Z,10.77
2019-05-19T02:24:05.226Z,10.63
2019-05-19T02:24:30.927Z,10.70
2019-05-19T02:25:31.029Z,10.68
2019-05-19T02:26:31.264Z,10.70
2019-05-19T02:27:31.506Z,10.77
2019-05-19T02:28:32.475Z,10.78
2019-05-19T02:29:31.816Z,10.78
2019-05-19T02:30:32.071Z,10.80
2019-05-19T02:31:32.115Z,10.84
2019-05-19T02:32:32.247Z,10.71
2019-05-19T02:33:35.873Z,10.84
2019-05-19T02:34:33.745Z,10.80
2019-05-19T02:35:32.866Z,10.86
2019-05-19T02:36:33.038Z,10.80
2019-05-19T02:37:33.198Z,10.91
2019-05-19T02:38:33.344Z,11.02
2019-05-19T02:39:35.484Z,10.95
2019-05-19T02:40:33.711Z,10.95
2019-05-19T02:41:33.887Z,10.86
2019-05-19T02:42:34.043Z,10.84
2019-05-19T02:43:34.224Z,10.95
2019-05-19T02:44:34.374Z,10.88
2019-05-19T02:45:34.558Z,10.88
2019-05-19T02:46:34.692Z,10.84
2019-05-19T02:47:35.486Z,10.84
2019-05-19T02:48:36.039Z,10.74
2019-05-19T02:49:35.162Z,10.66
2019-05-19T02:50:50.809Z,10.76
2019-05-19T02:51:37.539Z,10.68
2019-05-19T02:52:35.761Z,10.68
2019-05-19T02:53:35.908Z,10.60
2019-05-19T02:55:09.477Z,10.65
2019-05-19T02:55:37.008Z,10.52
2019-05-19T02:56:36.504Z,10.56
2019-05-19T02:57:36.661Z,10.59
2019-05-19T02:58:37.508Z,10.53
2019-05-19T02:59:37.003Z,10.51
2019-05-19T03:00:38.027Z,10.56
2019-05-19T03:01:37.331Z,10.56
2019-05-19T03:02:37.437Z,10.58
2019-05-19T03:03:37.569Z,10.65
2019-05-19T03:04:37.698Z,10.65
2019-05-19T03:05:38.542Z,10.58
2019-05-19T03:06:38.048Z,10.63
2019-05-19T03:07:38.195Z,10.66
2019-05-19T03:08:38.357Z,10.65
2019-05-19T03:09:38.597Z,10.65
2019-05-19T03:10:38.853Z,10.66
2019-05-19T03:11:38.968Z,10.66
2019-05-19T03:12:39.221Z,10.77
2019-05-19T03:13:40.352Z,10.70
2019-05-19T03:14:39.551Z,10.76
2019-05-19T03:15:39.676Z,10.71
2019-05-19T03:16:40.528Z,10.60
2019-05-19T03:17:40.148Z,10.56
2019-05-19T03:18:40.259Z,10.51
2019-05-19T03:19:40.497Z,10.56
2019-05-19T03:20:40.724Z,10.52
2019-05-19T03:21:40.968Z,10.46
2019-05-19T03:22:41.534Z,10.58
2019-05-19T03:23:42.468Z,10.51
2019-05-19T03:24:41.545Z,10.66
2019-05-19T03:26:17.059Z,10.55
2019-05-19T03:27:15.280Z,10.40
2019-05-19T03:27:42.020Z,10.59
2019-05-19T03:28:42.142Z,10.46
2019-05-19T03:29:42.375Z,10.44
2019-05-19T03:30:42.625Z,10.46
2019-05-19T03:31:42.773Z,10.46
2019-05-19T03:32:43.120Z,10.53
2019-05-19T03:33:43.125Z,10.46
2019-05-19T03:34:43.267Z,10.42
2019-05-19T03:35:43.414Z,10.42
2019-05-19T03:36:43.568Z,10.46
2019-05-19T03:37:43.731Z,10.40
2019-05-19T03:38:43.858Z,10.46
2019-05-19T03:39:44.104Z,10.37
2019-05-19T03:40:45.091Z,10.34
2019-05-19T03:41:44.598Z,10.32
2019-05-19T03:42:44.626Z,10.42
2019-05-19T03:43:44.761Z,10.33
2019-05-19T03:44:45.578Z,10.32
2019-05-19T03:45:45.151Z,10.30
2019-05-19T03:46:46.075Z,10.32
2019-05-19T03:47:45.561Z,10.32
2019-05-19T03:48:45.667Z,10.32
2019-05-19T03:49:45.888Z,10.32
2019-05-19T03:50:46.135Z,10.34
2019-05-19T03:51:46.246Z,10.34
2019-05-19T03:52:46.511Z,10.32
2019-05-19T03:53:46.651Z,10.33
2019-05-19T03:54:47.579Z,10.34
2019-05-19T03:56:21.003Z,10.34
2019-05-19T03:57:20.483Z,10.40
2019-05-19T03:57:47.193Z,10.47
2019-05-19T03:58:47.645Z,10.42
2019-05-19T03:59:48.135Z,10.47
2019-05-19T04:00:47.842Z,10.42
2019-05-19T04:01:48.079Z,10.40
2019-05-19T04:02:49.120Z,10.52
2019-05-19T04:03:48.350Z,10.34
2019-05-19T04:04:48.446Z,10.39
2019-05-19T04:05:48.682Z,10.36
2019-05-19T04:06:49.629Z,10.37
2019-05-19T04:07:49.057Z,10.37
2019-05-19T04:08:49.288Z,10.37
2019-05-19T04:09:49.489Z,10.34
2019-05-19T04:10:49.677Z,10.30
2019-05-19T04:11:49.894Z,10.46
2019-05-19T04:12:50.102Z,10.32
2019-05-19T04:13:50.344Z,10.40
2019-05-19T04:14:50.597Z,10.37
2019-05-19T04:15:50.704Z,10.39
2019-05-19T04:16:50.952Z,10.39
2019-05-19T04:17:51.186Z,10.42
2019-05-19T04:18:51.634Z,10.43
2019-05-19T04:19:51.585Z,10.40
2019-05-19T04:20:51.805Z,10.51
2019-05-19T04:21:51.942Z,10.52
2019-05-19T04:22:52.068Z,10.43
2019-05-19T04:23:52.208Z,10.56
2019-05-19T04:24:52.353Z,10.46
2019-05-19T04:25:52.463Z,10.55
2019-05-19T04:27:27.024Z,10.60
2019-05-19T04:28:26.277Z,10.53
2019-05-19T04:28:52.988Z,10.66
2019-05-19T04:29:53.144Z,10.56
2019-05-19T04:30:54.174Z,10.70
2019-05-19T04:31:53.426Z,10.71
2019-05-19T04:32:54.166Z,10.66
2019-05-19T04:33:53.789Z,10.76
2019-05-19T04:34:53.986Z,10.88
2019-05-19T04:35:57.443Z,10.92
2019-05-19T04:36:55.335Z,10.96
2019-05-19T04:37:54.567Z,11.01
2019-05-19T04:38:54.715Z,11.07
2019-05-19T04:39:55.680Z,11.02
2019-05-19T04:40:55.033Z,11.16
2019-05-19T04:41:55.182Z,11.13
2019-05-19T04:42:55.307Z,11.21
2019-05-19T04:43:57.170Z,11.35
2019-05-19T04:44:55.640Z,11.34
2019-05-19T04:45:55.792Z,11.54
2019-05-19T04:46:55.914Z,11.53
2019-05-19T04:47:56.050Z,11.59
2019-05-19T04:48:56.187Z,11.65
2019-05-19T04:49:56.313Z,11.68
2019-05-19T04:50:57.467Z,11.77
2019-05-19T04:52:06.617Z,11.89
2019-05-19T04:52:58.873Z,11.80
2019-05-19T04:53:57.070Z,12.06
2019-05-19T04:54:57.198Z,12.08
2019-05-19T04:55:57.420Z,12.11
2019-05-19T04:56:57.692Z,12.23
2019-05-19T04:58:33.614Z,12.23
2019-05-19T04:58:57.908Z,12.24
2019-05-19T04:59:58.028Z,12.33
2019-05-19T05:00:58.258Z,12.45
2019-05-19T05:01:58.525Z,12.45
2019-05-19T05:02:58.680Z,12.70
2019-05-19T05:03:58.797Z,12.77
2019-05-19T05:04:59.745Z,12.78
2019-05-19T05:05:59.086Z,12.87
2019-05-19T05:06:59.227Z,12.97
2019-05-19T05:07:59.331Z,13.09
2019-05-19T05:08:59.562Z,13.11
2019-05-19T05:10:00.807Z,13.15
2019-05-19T05:11:01.231Z,13.06
2019-05-19T05:12:00.176Z,13.11
2019-05-19T05:13:00.416Z,13.03
2019-05-19T05:14:00.627Z,13.00
2019-05-19T05:15:00.839Z,13.07
2019-05-19T05:16:01.096Z,13.04
2019-05-19T05:17:01.213Z,13.07
2019-05-19T05:18:01.392Z,13.04
2019-05-19T05:19:01.523Z,13.14
2019-05-19T05:20:01.744Z,13.18
2019-05-19T05:21:01.948Z,13.20
2019-05-19T05:22:02.160Z,13.22
2019-05-19T05:23:02.407Z,13.29
2019-05-19T05:24:02.614Z,13.32
2019-05-19T05:25:02.843Z,13.33
2019-05-19T05:26:02.938Z,13.32
2019-05-19T05:27:03.730Z,13.29
2019-05-19T05:28:03.315Z,13.38
2019-05-19T05:29:36.828Z,13.37
2019-05-19T05:30:04.261Z,13.36
2019-05-19T05:31:03.859Z,13.33
2019-05-19T05:32:04.071Z,13.18
2019-05-19T05:33:04.331Z,13.09
2019-05-19T05:34:04.445Z,13.12
2019-05-19T05:35:04.703Z,13.07
2019-05-19T05:36:04.815Z,13.07
2019-05-19T05:37:05.748Z,13.04
2019-05-19T05:38:05.084Z,13.09
2019-05-19T05:39:05.326Z,13.03
2019-05-19T05:40:05.828Z,13.06
2019-05-19T05:41:05.586Z,13.02
2019-05-19T05:42:05.706Z,13.07
2019-05-19T05:43:05.981Z,13.09
2019-05-19T05:44:06.125Z,13.18
2019-05-19T05:45:07.256Z,13.20
2019-05-19T05:46:07.259Z,13.30
2019-05-19T05:47:06.612Z,13.30
2019-05-19T05:48:06.753Z,13.38
2019-05-19T05:49:06.924Z,13.46
2019-05-19T05:50:07.055Z,13.40
2019-05-19T05:51:07.173Z,13.49
2019-05-19T05:52:07.304Z,13.58
2019-05-19T05:53:07.452Z,13.55
2019-05-19T05:54:07.614Z,13.70
2019-05-19T05:55:07.783Z,13.87
2019-05-19T05:56:08.756Z,13.91
2019-05-19T05:57:08.757Z,13.89
2019-05-19T05:58:08.290Z,13.95
2019-05-19T05:59:08.418Z,13.94
2019-05-19T06:00:08.797Z,13.94
2019-05-19T06:01:08.695Z,13.98
2019-05-19T06:02:08.806Z,14.12
2019-05-19T06:03:09.745Z,14.20
2019-05-19T06:04:09.264Z,14.13
2019-05-19T06:05:09.441Z,14.24
2019-05-19T06:06:09.597Z,14.29
2019-05-19T06:07:09.786Z,14.24
2019-05-19T06:08:10.057Z,14.19
2019-05-19T06:09:10.211Z,14.24
2019-05-19T06:10:10.342Z,14.24
2019-05-19T06:11:10.469Z,14.25
2019-05-19T06:12:10.614Z,14.34
2019-05-19T06:13:10.752Z,14.29
2019-05-19T06:14:10.939Z,14.37
2019-05-19T06:15:11.074Z,14.43
2019-05-19T06:16:11.767Z,14.43
2019-05-19T06:17:11.373Z,14.57
2019-05-19T06:18:11.538Z,14.56
2019-05-19T06:19:11.656Z,14.67
2019-05-19T06:20:12.268Z,14.75
2019-05-19T06:21:12.014Z,14.68
2019-05-19T06:22:12.263Z,14.86
2019-05-19T06:23:12.399Z,14.88
2019-05-19T06:24:12.514Z,14.99
2019-05-19T06:25:12.757Z,15.08
2019-05-19T06:26:13.763Z,15.12
2019-05-19T06:27:12.994Z,15.17
2019-05-19T06:28:13.130Z,15.06
2019-05-19T06:29:13.763Z,15.17
2019-05-19T06:30:46.800Z,15.13
2019-05-19T06:31:46.909Z,15.20
2019-05-19T06:32:13.733Z,15.24
2019-05-19T06:33:14.807Z,15.24
2019-05-19T06:34:14.037Z,15.21
2019-05-19T06:35:14.193Z,15.27
2019-05-19T06:36:14.336Z,15.33
2019-05-19T06:37:14.824Z,15.42
2019-05-19T06:38:14.716Z,15.41
2019-05-19T06:39:14.881Z,15.48
2019-05-19T06:40:15.030Z,15.36
2019-05-19T06:41:15.240Z,15.38
2019-05-19T06:42:15.407Z,15.52
2019-05-19T06:43:16.314Z,15.46
2019-05-19T06:44:15.819Z,15.42
2019-05-19T06:45:15.965Z,15.39
2019-05-19T06:46:16.161Z,15.38
2019-05-19T06:47:16.299Z,15.30
2019-05-19T06:48:16.431Z,15.28
2019-05-19T06:49:16.579Z,15.30
2019-05-19T06:50:17.715Z,15.41
2019-05-19T06:51:16.966Z,15.43
2019-05-19T06:52:17.166Z,15.33
2019-05-19T06:53:17.316Z,15.36
2019-05-19T06:54:17.483Z,15.45
2019-05-19T06:55:18.321Z,15.51
2019-05-19T06:56:17.845Z,15.49
2019-05-19T06:57:18.052Z,15.66
2019-05-19T06:58:18.228Z,15.60
2019-05-19T06:59:18.414Z,15.68
2019-05-19T07:00:18.597Z,15.85
2019-05-19T07:01:18.760Z,15.97
2019-05-19T07:02:52.345Z,16.06
2019-05-19T07:03:19.050Z,16.26
2019-05-19T07:04:19.192Z,16.44
2019-05-19T07:05:19.344Z,16.59
2019-05-19T07:06:19.478Z,16.74
2019-05-19T07:07:20.349Z,17.13
2019-05-19T07:08:20.356Z,17.48
2019-05-19T07:09:20.009Z,17.81
2019-05-19T07:10:20.150Z,18.13
2019-05-19T07:11:20.836Z,18.10
2019-05-19T07:12:20.457Z,18.15
2019-05-19T07:13:20.651Z,18.31
2019-05-19T07:14:20.822Z,18.61
2019-05-19T07:15:20.978Z,19.08
2019-05-19T07:16:21.143Z,19.28
2019-05-19T07:17:21.264Z,19.14
2019-05-19T07:18:21.429Z,18.87
2019-05-19T07:19:21.865Z,18.68
2019-05-19T07:20:21.743Z,18.40
2019-05-19T07:21:22.856Z,18.21
2019-05-19T07:22:22.087Z,18.09
2019-05-19T07:23:55.154Z,17.97
2019-05-19T07:24:22.404Z,17.95
2019-05-19T07:25:23.377Z,18.00
2019-05-19T07:26:22.709Z,17.78
2019-05-19T07:27:22.887Z,17.67
2019-05-19T07:28:23.128Z,17.70
2019-05-19T07:29:23.282Z,17.71
2019-05-19T07:30:23.402Z,17.74
2019-05-19T07:31:23.658Z,17.81
2019-05-19T07:32:23.762Z,17.91
2019-05-19T07:33:23.999Z,17.88
2019-05-19T07:34:24.122Z,17.74
2019-05-19T07:35:24.383Z,17.82
2019-05-19T07:36:25.385Z,17.71
2019-05-19T07:37:24.701Z,17.78
2019-05-19T07:38:24.854Z,17.73
2019-05-19T07:39:25.010Z,17.89
2019-05-19T07:40:25.160Z,17.92
2019-05-19T07:41:25.278Z,17.99
2019-05-19T07:42:25.505Z,17.99
2019-05-19T07:43:25.636Z,17.99
2019-05-19T07:44:25.886Z,17.88
2019-05-19T07:45:25.884Z,17.78
2019-05-19T07:46:26.068Z,17.84
2019-05-19T07:47:26.232Z,18.06
2019-05-19T07:48:26.355Z,18.12
2019-05-19T07:49:26.626Z,18.43
2019-05-19T07:50:27.366Z,18.98
2019-05-19T07:51:27.030Z,19.31
2019-05-19T07:52:27.192Z,19.48
2019-05-19T07:53:27.336Z,19.36
2019-05-19T07:54:27.484Z,19.08
2019-05-19T07:55:27.627Z,18.84
2019-05-19T07:56:28.366Z,18.72
2019-05-19T07:57:27.996Z,18.67
2019-05-19T07:58:28.877Z,18.52
2019-05-19T07:59:28.240Z,18.43
2019-05-19T08:00:29.529Z,18.33
2019-05-19T08:01:28.528Z,18.31
2019-05-19T08:02:28.700Z,18.49
2019-05-19T08:03:28.827Z,18.62
2019-05-19T08:04:28.950Z,18.55
2019-05-19T08:05:29.107Z,18.50
2019-05-19T08:06:29.882Z,18.42
2019-05-19T08:07:29.383Z,18.55
2019-05-19T08:08:29.527Z,18.46
2019-05-19T08:09:29.672Z,18.44
2019-05-19T08:10:29.859Z,18.42
2019-05-19T08:11:30.034Z,18.54
2019-05-19T08:12:30.884Z,18.47
2019-05-19T08:13:30.384Z,18.72
2019-05-19T08:14:30.605Z,18.74
2019-05-19T08:15:30.909Z,18.70
2019-05-19T08:16:30.917Z,18.82
2019-05-19T08:17:31.042Z,18.99
2019-05-19T08:18:31.193Z,19.06
2019-05-19T08:19:32.298Z,19.17
2019-05-19T08:20:31.525Z,19.08
2019-05-19T08:21:31.683Z,19.02
2019-05-19T08:22:31.910Z,18.95
2019-05-19T08:23:31.941Z,18.82
2019-05-19T08:24:32.075Z,18.74
2019-05-19T08:25:32.239Z,18.80
2019-05-19T08:26:33.405Z,18.92
2019-05-19T08:27:32.672Z,18.94
2019-05-19T08:28:33.396Z,18.90
2019-05-19T08:29:33.019Z,19.08
2019-05-19T08:30:33.181Z,19.06
2019-05-19T08:31:33.884Z,19.08
2019-05-19T08:32:33.520Z,19.24
2019-05-19T08:33:33.681Z,19.20
2019-05-19T08:34:33.824Z,19.25
2019-05-19T08:35:34.004Z,19.15
2019-05-19T08:36:34.183Z,19.02
2019-05-19T08:37:34.357Z,18.98
2019-05-19T08:38:34.502Z,19.11
2019-05-19T08:39:35.408Z,19.21
2019-05-19T08:40:34.821Z,19.36
2019-05-19T08:41:34.964Z,19.42
2019-05-19T08:42:35.111Z,19.38
2019-05-19T08:43:35.248Z,19.43
2019-05-19T08:44:35.368Z,19.47
2019-05-19T08:45:35.490Z,19.38
2019-05-19T08:46:35.628Z,19.29
2019-05-19T08:47:35.788Z,19.25
2019-05-19T08:48:35.966Z,19.29
2019-05-19T08:49:36.077Z,19.18
2019-05-19T08:50:36.287Z,19.18
2019-05-19T08:51:36.400Z,19.11
2019-05-19T08:52:36.555Z,19.11
2019-05-19T08:53:36.726Z,19.11
2019-05-19T08:54:36.914Z,19.17
2019-05-19T08:55:37.055Z,19.15
2019-05-19T08:56:37.897Z,19.15
2019-05-19T08:57:38.401Z,19.11
2019-05-19T08:58:37.667Z,19.17
2019-05-19T08:59:37.838Z,19.14
2019-05-19T09:00:38.901Z,19.13
2019-05-19T09:01:38.160Z,19.21
2019-05-19T09:02:38.318Z,19.24
2019-05-19T09:03:38.480Z,19.28
2019-05-19T09:04:38.650Z,19.20
2019-05-19T09:06:12.221Z,19.32
2019-05-19T09:06:45.914Z,19.25
2019-05-19T09:07:39.138Z,19.29
2019-05-19T09:08:39.276Z,19.32
2019-05-19T09:09:40.943Z,19.54
2019-05-19T09:10:39.530Z,19.63
2019-05-19T09:11:39.784Z,19.61
2019-05-19T09:12:40.425Z,19.69
2019-05-19T09:13:40.458Z,19.63
2019-05-19T09:14:40.250Z,19.61
2019-05-19T09:15:40.388Z,19.58
2019-05-19T09:16:40.952Z,19.57
2019-05-19T09:17:40.677Z,19.63
2019-05-19T09:18:40.906Z,19.48
2019-05-19T09:19:41.485Z,19.29
2019-05-19T09:20:41.944Z,19.23
2019-05-19T09:21:41.412Z,19.10
2019-05-19T09:22:41.652Z,19.23
2019-05-19T09:23:41.784Z,19.18
2019-05-19T09:24:41.939Z,19.29
2019-05-19T09:25:42.081Z,19.25
2019-05-19T09:26:42.225Z,19.32
2019-05-19T09:27:42.406Z,19.32
2019-05-19T09:28:42.553Z,19.39
2019-05-19T09:29:42.766Z,19.47
2019-05-19T09:30:43.446Z,19.46
2019-05-19T09:31:43.081Z,19.36
2019-05-19T09:32:43.209Z,19.55
2019-05-19T09:33:43.359Z,19.79
2019-05-19T09:34:43.537Z,19.90
2019-05-19T09:35:43.683Z,19.87
2019-05-19T09:36:43.883Z,20.02
2019-05-19T09:37:44.041Z,20.10
2019-05-19T09:38:44.946Z,20.08
2019-05-19T09:39:44.316Z,20.06
2019-05-19T09:40:44.962Z,20.15
2019-05-19T09:41:44.579Z,20.08
2019-05-19T09:42:44.713Z,19.95
2019-05-19T09:43:44.848Z,20.10
2019-05-19T09:44:44.970Z,20.08
2019-05-19T09:45:45.450Z,20.08
2019-05-19T09:46:45.322Z,20.06
2019-05-19T09:47:45.456Z,19.98
2019-05-19T09:48:45.605Z,20.08
2019-05-19T09:49:46.447Z,20.12
2019-05-19T09:50:45.966Z,20.13
2019-05-19T09:51:46.096Z,20.02
2019-05-19T09:52:46.265Z,19.93
2019-05-19T09:53:46.394Z,19.80
2019-05-19T09:54:46.510Z,19.75
2019-05-19T09:55:46.659Z,19.88
2019-05-19T09:56:46.949Z,20.02
2019-05-19T09:57:46.977Z,20.13
2019-05-19T09:58:47.109Z,20.23
2019-05-19T09:59:47.267Z,20.49
2019-05-19T10:00:47.414Z,20.59
2019-05-19T10:01:47.574Z,20.71
2019-05-19T10:02:47.734Z,20.93
2019-05-19T10:03:47.860Z,21.14
2019-05-19T10:04:48.027Z,21.34
2019-05-19T10:05:48.184Z,21.44
2019-05-19T10:06:48.428Z,21.19
2019-05-19T10:07:48.500Z,21.06
2019-05-19T10:08:48.659Z,20.93
2019-05-19T10:09:48.802Z,21.08
2019-05-19T10:10:48.926Z,21.01
2019-05-19T10:11:49.047Z,20.84
2019-05-19T10:12:49.165Z,20.72
2019-05-19T10:13:49.446Z,20.61
2019-05-19T10:14:49.562Z,20.28
2019-05-19T10:15:49.693Z,20.27
2019-05-19T10:16:49.907Z,20.23
2019-05-19T10:17:50.059Z,20.30
2019-05-19T10:18:50.226Z,20.38
2019-05-19T10:19:50.441Z,20.51
2019-05-19T10:20:50.613Z,20.50
2019-05-19T10:21:51.752Z,20.56
2019-05-19T10:22:50.897Z,20.43
2019-05-19T10:23:51.060Z,20.35
2019-05-19T10:25:04.450Z,20.28
2019-05-19T10:25:53.419Z,20.30
2019-05-19T10:26:51.636Z,20.28
2019-05-19T10:27:51.784Z,20.41
2019-05-19T10:28:51.947Z,20.34
2019-05-19T10:29:52.100Z,20.27
2019-05-19T10:30:52.954Z,20.09
2019-05-19T10:31:54.376Z,20.02
2019-05-19T10:32:53.736Z,20.02
2019-05-19T10:33:52.890Z,20.02
2019-05-19T10:34:53.058Z,20.00
2019-05-19T10:35:53.182Z,20.06
2019-05-19T10:36:53.952Z,20.08
2019-05-19T10:37:53.609Z,20.23
2019-05-19T10:38:53.810Z,20.21
2019-05-19T10:39:53.956Z,20.18
2019-05-19T10:40:54.086Z,20.16
2019-05-19T10:41:54.229Z,20.21
2019-05-19T10:42:54.375Z,20.30
2019-05-19T10:43:54.517Z,20.28
2019-05-19T10:44:54.621Z,20.49
2019-05-19T10:45:54.875Z,20.65
2019-05-19T10:46:55.012Z,20.81
2019-05-19T10:47:56.265Z,20.87
2019-05-19T10:48:55.427Z,20.91
2019-05-19T10:49:56.464Z,20.90
2019-05-19T10:50:55.715Z,20.93
2019-05-19T10:51:55.859Z,20.99
2019-05-19T10:52:56.005Z,20.91
2019-05-19T10:53:56.246Z,20.84
2019-05-19T10:54:56.274Z,20.84
2019-05-19T10:55:57.454Z,20.87
2019-05-19T10:56:56.675Z,20.80
2019-05-19T10:57:56.806Z,20.74
2019-05-19T10:58:56.948Z,20.61
2019-05-19T10:59:57.957Z,20.66
2019-05-19T11:00:57.187Z,20.62
2019-05-19T11:01:57.359Z,20.65
2019-05-19T11:02:57.519Z,20.56
2019-05-19T11:03:57.988Z,20.66
2019-05-19T11:04:57.897Z,20.68
2019-05-19T11:05:58.052Z,20.54
2019-05-19T11:06:58.234Z,20.56
2019-05-19T11:07:58.387Z,20.69
2019-05-19T11:08:58.991Z,20.62
2019-05-19T11:09:58.728Z,20.49
2019-05-19T11:10:58.856Z,20.43
2019-05-19T11:11:59.001Z,20.46
2019-05-19T11:12:59.139Z,20.41
2019-05-19T11:13:59.320Z,20.35
2019-05-19T11:14:59.447Z,20.27
2019-05-19T11:15:59.681Z,20.23
2019-05-19T11:16:59.814Z,20.20
2019-05-19T11:18:00.019Z,20.23
2019-05-19T11:19:00.502Z,20.24
2019-05-19T11:20:00.476Z,20.12
2019-05-19T11:21:00.761Z,20.15
2019-05-19T11:22:00.882Z,20.15
2019-05-19T11:23:01.130Z,20.09
2019-05-19T11:24:01.345Z,20.25
2019-05-19T11:25:01.592Z,20.15
2019-05-19T11:26:01.712Z,20.06
2019-05-19T11:27:01.952Z,19.95
2019-05-19T11:28:02.195Z,19.98
2019-05-19T11:29:02.311Z,19.75
2019-05-19T11:30:02.518Z,19.78
2019-05-19T11:31:04.463Z,19.70
2019-05-19T11:32:02.926Z,19.78
2019-05-19T11:33:03.981Z,19.84
2019-05-19T11:34:03.497Z,19.78
2019-05-19T11:35:03.369Z,19.79
2019-05-19T11:36:04.473Z,19.78
2019-05-19T11:37:07.213Z,19.75
2019-05-19T11:38:04.040Z,19.79
2019-05-19T11:39:04.167Z,19.86
2019-05-19T11:40:04.400Z,19.91
2019-05-19T11:41:04.637Z,19.90
2019-05-19T11:42:04.798Z,19.79
2019-05-19T11:43:04.925Z,19.84
2019-05-19T11:44:05.986Z,19.78
2019-05-19T11:45:05.199Z,19.84
2019-05-19T11:46:05.365Z,19.86
2019-05-19T11:47:06.474Z,19.80
2019-05-19T11:48:05.693Z,19.80
2019-05-19T11:49:05.831Z,19.69
2019-05-19T11:50:05.958Z,19.57
2019-05-19T11:51:06.139Z,19.54
2019-05-19T11:52:06.293Z,19.63
2019-05-19T11:53:06.486Z,19.55
2019-05-19T11:54:06.607Z,19.51
2019-05-19T11:55:06.743Z,19.39
2019-05-19T11:56:10.985Z,19.40
2019-05-19T11:57:08.083Z,19.39
2019-05-19T11:58:07.246Z,19.43
2019-05-19T11:59:07.373Z,19.35
2019-05-19T12:00:07.528Z,19.43
2019-05-19T12:01:08.512Z,19.36
2019-05-19T12:02:08.213Z,19.33
2019-05-19T12:03:08.102Z,19.32
2019-05-19T12:04:08.206Z,19.35
2019-05-19T12:05:08.466Z,19.31
2019-05-19T12:06:08.600Z,19.29
2019-05-19T12:07:08.731Z,19.35
2019-05-19T12:08:08.877Z,19.23
2019-05-19T12:09:09.011Z,19.10
2019-05-19T12:10:09.160Z,18.76
2019-05-19T12:11:09.327Z,18.40
2019-05-19T12:12:09.471Z,17.95
2019-05-19T12:13:09.582Z,17.51
2019-05-19T12:14:09.731Z,17.29
2019-05-19T12:15:09.850Z,17.07
2019-05-19T12:16:10.090Z,16.83
2019-05-19T12:17:10.377Z,16.50
2019-05-19T12:18:10.551Z,16.34
2019-05-19T12:19:10.718Z,16.06
2019-05-19T12:20:10.857Z,15.89
2019-05-19T12:21:11.020Z,15.78
2019-05-19T12:22:11.131Z,15.54
2019-05-19T12:23:11.262Z,15.54
2019-05-19T12:24:11.520Z,15.46
2019-05-19T12:25:11.656Z,15.38
2019-05-19T12:26:22.839Z,15.35
2019-05-19T12:27:14.976Z,15.30
2019-05-19T12:28:13.159Z,15.21
2019-05-19T12:29:12.381Z,15.13
2019-05-19T12:30:12.539Z,14.93
2019-05-19T12:31:12.690Z,15.06
2019-05-19T12:32:12.857Z,14.98
2019-05-19T12:33:13.002Z,14.95
2019-05-19T12:34:14.988Z,14.83
2019-05-19T12:35:13.991Z,14.80
2019-05-19T12:36:13.530Z,14.95
2019-05-19T12:37:13.673Z,14.90
2019-05-19T12:38:14.498Z,14.95
2019-05-19T12:39:13.988Z,14.90
2019-05-19T12:40:14.137Z,14.98
2019-05-19T12:41:14.509Z,14.81
2019-05-19T12:42:14.403Z,14.88
2019-05-19T12:43:15.499Z,15.02
2019-05-19T12:44:14.719Z,14.90
2019-05-19T12:45:14.840Z,14.95
2019-05-19T12:46:16.650Z,14.95
2019-05-19T12:47:16.224Z,15.12
2019-05-19T12:48:15.458Z,15.15
2019-05-19T12:49:16.499Z,15.23
2019-05-19T12:50:16.000Z,15.19
2019-05-19T12:51:15.966Z,15.42
2019-05-19T12:52:17.009Z,15.41
2019-05-19T12:53:16.368Z,15.38
2019-05-19T12:54:16.491Z,15.33